createdAt,value
2022-08-04T00:01:50.283Z,21.20
2022-08-04T00:04:31.756Z,21.10
2022-08-04T00:07:08.189Z,21.10
2022-08-04T00:09:52.495Z,21.10
2022-08-04T00:12:29.457Z,21.00
2022-08-04T00:15:00.945Z,20.90
2022-08-04T00:17:41.488Z,19.80
2022-08-04T00:20:10.020Z,20.90
2022-08-04T00:22:40.121Z,20.90
2022-08-04T00:25:07.174Z,20.80
2022-08-04T00:27:36.235Z,20.80
2022-08-04T00:30:04.053Z,20.90
2022-08-04T00:32:34.463Z,20.80
2022-08-04T00:35:02.634Z,20.70
2022-08-04T00:37:29.373Z,20.70
2022-08-04T00:39:57.197Z,20.60
2022-08-04T00:42:58.138Z,20.60
2022-08-04T00:46:14.151Z,20.60
2022-08-04T00:48:56.514Z,20.60
2022-08-04T00:51:40.217Z,20.50
2022-08-04T00:54:17.995Z,20.50
2022-08-04T00:57:35.346Z,20.50
2022-08-04T01:00:10.585Z,20.40
2022-08-04T01:03:10.689Z,20.40
2022-08-04T01:06:11.399Z,21.50
2022-08-04T01:09:21.664Z,20.30
2022-08-04T01:12:07.091Z,20.30
2022-08-04T01:14:59.238Z,20.20
2022-08-04T01:17:37.670Z,20.20
2022-08-04T01:20:09.744Z,20.10
2022-08-04T01:23:22.758Z,20.10
2022-08-04T01:26:41.922Z,20.10
2022-08-04T01:29:04.884Z,20.00
2022-08-04T01:32:00.597Z,20.00
2022-08-04T01:34:36.588Z,20.00
2022-08-04T01:37:08.673Z,20.00
2022-08-04T01:39:42.743Z,20.00
2022-08-04T01:42:11.083Z,19.90
2022-08-04T01:44:41.128Z,19.90
2022-08-04T01:47:09.236Z,19.90
2022-08-04T01:49:39.994Z,19.80
2022-08-04T01:52:09.915Z,19.80
2022-08-04T01:54:41.232Z,19.80
2022-08-04T01:57:38.903Z,19.70
2022-08-04T01:59:58.937Z,19.70
2022-08-04T02:02:25.709Z,19.70
2022-08-04T02:04:52.933Z,19.70
2022-08-04T02:07:19.721Z,19.60
2022-08-04T02:10:10.627Z,19.50
2022-08-04T02:13:01.962Z,19.50
2022-08-04T02:15:47.629Z,19.40
2022-08-04T02:18:30.524Z,19.40
2022-08-04T02:21:02.137Z,19.30
2022-08-04T02:23:38.040Z,19.30
2022-08-04T02:26:12.571Z,19.30
2022-08-04T02:28:56.966Z,19.30
2022-08-04T02:31:49.010Z,19.20
2022-08-04T02:34:24.631Z,19.20
2022-08-04T02:36:52.520Z,19.20
2022-08-04T02:39:21.059Z,19.10
2022-08-04T02:41:49.803Z,19.10
2022-08-04T02:44:23.522Z,19.10
2022-08-04T02:46:53.016Z,19.10
2022-08-04T02:49:24.283Z,19.10
2022-08-04T02:51:53.111Z,19.00
2022-08-04T02:54:32.782Z,19.00
2022-08-04T02:57:01.981Z,19.00
2022-08-04T02:59:51.590Z,18.90
2022-08-04T03:02:29.004Z,18.90
2022-08-04T03:05:03.282Z,18.90
2022-08-04T03:07:51.625Z,18.90
2022-08-04T03:11:02.775Z,18.90
2022-08-04T03:13:38.470Z,18.80
2022-08-04T03:16:40.136Z,18.80
2022-08-04T03:19:22.361Z,18.80
2022-08-04T03:22:08.031Z,18.70
2022-08-04T03:25:05.978Z,18.70
2022-08-04T03:28:00.869Z,18.70
2022-08-04T03:31:01.013Z,18.70
2022-08-04T03:33:44.731Z,18.70
2022-08-04T03:37:03.232Z,15.80
2022-08-04T03:40:09.750Z,18.60
2022-08-04T03:43:57.851Z,18.60
2022-08-04T03:46:39.705Z,18.60
2022-08-04T03:49:44.101Z,18.60
2022-08-04T03:52:47.187Z,18.60
2022-08-04T03:55:19.790Z,18.50
2022-08-04T03:58:07.810Z,18.50
2022-08-04T04:00:55.921Z,18.50
2022-08-04T04:03:51.683Z,18.50
2022-08-04T04:06:37.535Z,18.50
2022-08-04T04:09:57.068Z,18.50
2022-08-04T04:12:37.540Z,18.50
2022-08-04T04:15:04.233Z,18.50
2022-08-04T04:18:16.134Z,18.50
2022-08-04T04:20:54.456Z,18.40
2022-08-04T04:23:29.660Z,18.40
2022-08-04T04:26:17.921Z,18.50
2022-08-04T04:29:17.347Z,18.50
2022-08-04T04:32:09.317Z,18.50
2022-08-04T04:35:13.524Z,18.50
2022-08-04T04:37:48.699Z,18.50
2022-08-04T04:40:21.849Z,18.60
2022-08-04T04:43:04.935Z,18.60
2022-08-04T04:45:38.270Z,18.70
2022-08-04T04:48:15.072Z,18.80
2022-08-04T04:51:10.403Z,18.90
2022-08-04T04:54:00.394Z,19.10
2022-08-04T04:56:35.765Z,22.00
2022-08-04T04:59:03.983Z,19.50
2022-08-04T05:01:36.461Z,19.70
2022-08-04T05:04:25.300Z,18.60
2022-08-04T05:07:10.702Z,20.00
2022-08-04T05:09:43.748Z,20.20
2022-08-04T05:14:36.573Z,20.30
2022-08-04T05:15:34.353Z,20.30
2022-08-04T05:18:04.088Z,20.40
2022-08-04T05:20:38.739Z,20.60
2022-08-04T05:23:15.096Z,20.70
2022-08-04T05:25:58.906Z,20.90
2022-08-04T05:28:36.209Z,21.10
2022-08-04T05:31:24.418Z,21.30
2022-08-04T05:34:13.813Z,21.40
2022-08-04T05:36:47.882Z,21.60
2022-08-04T05:39:23.218Z,21.70
2022-08-04T05:41:55.089Z,21.80
2022-08-04T05:44:23.653Z,21.90
2022-08-04T05:46:55.610Z,22.00
2022-08-04T05:49:24.130Z,22.10
2022-08-04T05:51:52.354Z,22.00
2022-08-04T05:54:21.258Z,22.10
2022-08-04T05:56:49.665Z,22.20
2022-08-04T05:59:18.531Z,22.30
2022-08-04T06:01:56.482Z,22.50
2022-08-04T06:04:35.261Z,22.60
2022-08-04T06:07:02.212Z,22.70
2022-08-04T06:09:29.761Z,22.80
2022-08-04T06:12:04.318Z,23.00
2022-08-04T06:14:53.576Z,23.10
2022-08-04T06:19:58.816Z,23.30
2022-08-04T06:20:17.838Z,23.40
2022-08-04T06:22:50.616Z,23.60
2022-08-04T06:25:20.810Z,23.70
2022-08-04T06:27:49.616Z,23.90
2022-08-04T06:30:19.038Z,24.00
2022-08-04T06:32:48.484Z,24.20
2022-08-04T06:35:17.785Z,24.30
2022-08-04T06:37:46.828Z,24.50
2022-08-04T06:40:31.867Z,24.70
2022-08-04T06:43:01.585Z,24.90
2022-08-04T06:45:29.254Z,25.10
2022-08-04T06:47:56.599Z,25.30
2022-08-04T06:51:24.363Z,25.50
2022-08-04T06:53:11.564Z,25.70
2022-08-04T06:55:40.745Z,25.80
2022-08-04T06:58:08.838Z,26.00
2022-08-04T07:00:36.654Z,26.20
2022-08-04T07:03:03.978Z,26.30
2022-08-04T07:05:31.334Z,26.50
2022-08-04T07:07:59.029Z,26.70
2022-08-04T07:10:30.387Z,26.80
2022-08-04T07:12:58.786Z,26.90
2022-08-04T07:15:26.778Z,27.00
2022-08-04T07:17:55.072Z,27.20
2022-08-04T07:20:35.759Z,27.30
2022-08-04T07:23:07.199Z,27.40
2022-08-04T07:25:58.843Z,27.50
2022-08-04T07:28:24.466Z,27.70
2022-08-04T07:30:52.529Z,27.80
2022-08-04T07:33:19.799Z,27.90
2022-08-04T07:36:09.948Z,28.10
2022-08-04T07:38:37.909Z,28.20
2022-08-04T07:41:37.416Z,28.60
2022-08-04T07:44:04.857Z,28.50
2022-08-04T07:46:31.744Z,28.60
2022-08-04T07:49:02.907Z,28.70
2022-08-04T07:51:31.223Z,28.80
2022-08-04T07:53:58.725Z,28.90
2022-08-04T07:56:26.603Z,29.00
2022-08-04T07:58:53.379Z,29.10
2022-08-04T08:01:20.907Z,29.20
2022-08-04T08:03:48.331Z,29.30
2022-08-04T08:06:17.429Z,29.40
2022-08-04T08:09:02.282Z,29.60
2022-08-04T08:12:38.717Z,29.60
2022-08-04T08:14:33.312Z,29.80
2022-08-04T08:17:02.471Z,29.90
2022-08-04T08:19:31.253Z,30.00
2022-08-04T08:22:00.819Z,30.00
2022-08-04T08:24:34.629Z,28.60
2022-08-04T08:27:04.218Z,30.20
2022-08-04T08:29:33.881Z,30.20
2022-08-04T08:32:07.723Z,30.30
2022-08-04T08:34:35.631Z,30.40
2022-08-04T08:37:15.247Z,30.50
2022-08-04T08:39:50.892Z,30.70
2022-08-04T08:42:47.480Z,30.80
2022-08-04T08:45:33.486Z,30.90
2022-08-04T08:48:30.625Z,31.00
2022-08-04T08:51:09.252Z,31.10
2022-08-04T08:53:52.409Z,31.20
2022-08-04T08:56:34.576Z,31.20
2022-08-04T08:59:36.345Z,31.20
2022-08-04T09:02:22.778Z,31.40
2022-08-04T09:04:49.386Z,31.50
2022-08-04T09:07:28.096Z,31.50
2022-08-04T09:10:17.693Z,31.60
2022-08-04T09:12:59.352Z,31.60
2022-08-04T09:15:41.543Z,31.70
2022-08-04T09:18:27.766Z,31.80
2022-08-04T09:21:04.518Z,31.80
2022-08-04T09:23:40.554Z,31.90
2022-08-04T09:26:29.416Z,32.00
2022-08-04T09:29:29.926Z,32.00
2022-08-04T09:32:21.315Z,32.00
2022-08-04T09:35:03.669Z,32.10
2022-08-04T09:37:45.888Z,32.10
2022-08-04T09:40:31.893Z,32.20
2022-08-04T09:43:58.776Z,32.20
2022-08-04T09:46:28.049Z,32.30
2022-08-04T09:49:07.494Z,32.30
2022-08-04T09:51:59.231Z,32.30
2022-08-04T09:54:54.970Z,32.40
2022-08-04T09:57:49.565Z,32.40
2022-08-04T10:00:17.717Z,32.40
2022-08-04T10:02:50.900Z,32.40
2022-08-04T10:05:23.487Z,32.50
2022-08-04T10:08:16.300Z,32.50
2022-08-04T10:10:46.099Z,32.50
2022-08-04T10:13:34.510Z,32.60
2022-08-04T10:16:26.043Z,32.70
2022-08-04T10:19:25.662Z,32.70
2022-08-04T10:22:30.602Z,31.80
2022-08-04T10:26:05.429Z,32.90
2022-08-04T10:28:43.599Z,33.10
2022-08-04T10:31:17.833Z,32.90
2022-08-04T10:33:57.424Z,32.90
2022-08-04T10:36:30.096Z,32.90
2022-08-04T10:39:06.022Z,32.90
2022-08-04T10:41:42.203Z,33.00
2022-08-04T10:44:27.421Z,33.00
2022-08-04T10:47:08.006Z,33.10
2022-08-04T10:49:44.742Z,33.10
2022-08-04T10:52:27.137Z,33.10
2022-08-04T10:55:13.091Z,33.10
2022-08-04T10:57:41.373Z,33.10
2022-08-04T11:00:16.389Z,33.20
2022-08-04T11:03:07.188Z,33.20
2022-08-04T11:05:59.016Z,33.30
2022-08-04T11:08:31.087Z,33.30
2022-08-04T11:11:19.243Z,33.40
2022-08-04T11:13:52.830Z,33.40
2022-08-04T11:16:36.983Z,33.50
2022-08-04T11:19:44.844Z,33.50
2022-08-04T11:22:20.277Z,33.60
2022-08-04T11:25:17.607Z,33.60
2022-08-04T11:28:03.022Z,33.60
2022-08-04T11:30:55.154Z,33.60
2022-08-04T11:33:32.409Z,33.70
2022-08-04T11:36:29.434Z,33.70
2022-08-04T11:39:14.001Z,33.80
2022-08-04T11:42:26.142Z,35.50
2022-08-04T11:45:00.341Z,33.90
2022-08-04T11:47:41.242Z,33.90
2022-08-04T11:50:26.412Z,33.90
2022-08-04T11:52:55.615Z,34.00
2022-08-04T11:55:25.329Z,34.00
2022-08-04T11:57:54.112Z,34.00
2022-08-04T12:00:22.293Z,34.10
2022-08-04T12:03:15.251Z,34.10
2022-08-04T12:06:08.527Z,34.10
2022-08-04T12:09:04.118Z,34.20
2022-08-04T12:12:00.207Z,34.10
2022-08-04T12:14:39.560Z,34.20
2022-08-04T12:17:07.169Z,34.20
2022-08-04T12:20:04.120Z,34.10
2022-08-04T12:22:40.645Z,34.10
2022-08-04T12:25:11.873Z,34.10
2022-08-04T12:27:57.758Z,34.20
2022-08-04T12:30:58.982Z,34.20
2022-08-04T12:33:23.647Z,34.20
2022-08-04T12:36:21.337Z,34.30
2022-08-04T12:39:12.906Z,34.30
2022-08-04T12:41:43.768Z,34.40
2022-08-04T12:44:33.406Z,34.50
2022-08-04T12:47:26.446Z,34.50
2022-08-04T12:50:00.184Z,34.60
2022-08-04T12:52:51.726Z,34.60
2022-08-04T12:55:17.773Z,34.70
2022-08-04T12:57:46.802Z,34.70
2022-08-04T13:00:29.302Z,34.70
2022-08-04T13:03:04.160Z,34.80
2022-08-04T13:05:31.701Z,34.80
2022-08-04T13:08:00.134Z,34.80
2022-08-04T13:10:30.546Z,34.80
2022-08-04T13:13:00.215Z,34.80
2022-08-04T13:15:28.360Z,34.70
2022-08-04T13:18:14.700Z,34.60
2022-08-04T13:20:43.540Z,34.50
2022-08-04T13:23:14.435Z,34.50
2022-08-04T13:26:43.390Z,34.50
2022-08-04T13:28:42.661Z,34.50
2022-08-04T13:31:14.055Z,34.50
2022-08-04T13:33:46.633Z,34.50
2022-08-04T13:36:14.799Z,34.40
2022-08-04T13:38:49.546Z,34.40
2022-08-04T13:41:17.742Z,34.40
2022-08-04T13:44:17.380Z,34.50
2022-08-04T13:46:50.502Z,34.50
2022-08-04T13:52:10.923Z,34.50
2022-08-04T13:54:43.171Z,34.50
2022-08-04T13:57:27.663Z,34.40
2022-08-04T13:59:59.950Z,34.40
2022-08-04T14:02:58.894Z,34.30
2022-08-04T14:05:33.811Z,34.20
2022-08-04T14:08:15.012Z,34.00
2022-08-04T14:10:41.631Z,33.90
2022-08-04T14:13:08.205Z,33.90
2022-08-04T14:16:02.009Z,33.80
2022-08-04T14:18:32.424Z,33.70
2022-08-04T14:21:12.593Z,33.60
2022-08-04T14:23:57.379Z,33.50
2022-08-04T14:26:32.579Z,33.50
2022-08-04T14:29:27.077Z,33.40
2022-08-04T14:32:02.054Z,33.30
2022-08-04T14:34:31.191Z,34.80
2022-08-04T14:37:17.698Z,33.20
2022-08-04T14:40:18.402Z,33.10
2022-08-04T14:42:55.237Z,33.00
2022-08-04T14:45:33.517Z,33.00
2022-08-04T14:48:01.256Z,33.00
2022-08-04T14:50:46.286Z,33.00
2022-08-04T14:53:17.378Z,32.90
2022-08-04T14:55:47.651Z,30.80
2022-08-04T14:58:34.551Z,32.80
2022-08-04T15:01:10.275Z,32.70
2022-08-04T15:03:49.812Z,32.70
2022-08-04T15:06:22.639Z,32.70
2022-08-04T15:08:51.696Z,32.70
2022-08-04T15:11:23.098Z,32.70
2022-08-04T15:13:54.318Z,32.70
2022-08-04T15:16:22.386Z,32.60
2022-08-04T15:18:50.021Z,32.50
2022-08-04T15:21:17.379Z,32.30
2022-08-04T15:23:44.225Z,32.20
2022-08-04T15:26:17.261Z,32.00
2022-08-04T15:28:50.056Z,31.90
2022-08-04T15:32:05.881Z,31.80
2022-08-04T15:34:08.466Z,31.70
2022-08-04T15:36:57.259Z,31.60
2022-08-04T15:39:49.184Z,31.60
2022-08-04T15:42:37.021Z,31.40
2022-08-04T15:45:23.354Z,31.40
2022-08-04T15:48:13.141Z,31.40
2022-08-04T15:50:58.103Z,31.30
2022-08-04T15:54:02.404Z,31.30
2022-08-04T15:56:30.574Z,31.30
2022-08-04T15:58:58.373Z,31.30
2022-08-04T16:01:25.332Z,31.30
2022-08-04T16:04:00.145Z,31.30
2022-08-04T16:06:29.525Z,31.20
2022-08-04T16:09:01.095Z,31.20
2022-08-04T16:11:32.483Z,31.20
2022-08-04T16:13:59.584Z,31.10
2022-08-04T16:16:29.964Z,31.20
2022-08-04T16:19:24.849Z,31.20
2022-08-04T16:22:03.061Z,31.10
2022-08-04T16:24:40.993Z,31.10
2022-08-04T16:27:10.027Z,31.10
2022-08-04T16:29:38.053Z,31.10
2022-08-04T16:32:04.802Z,31.00
2022-08-04T16:34:48.656Z,31.00
2022-08-04T16:37:19.046Z,31.00
2022-08-04T16:39:49.621Z,30.90
2022-08-04T16:42:30.069Z,30.80
2022-08-04T16:45:02.425Z,30.80
2022-08-04T16:47:47.493Z,30.70
2022-08-04T16:50:24.690Z,30.70
2022-08-04T16:52:55.326Z,30.60
2022-08-04T16:55:26.981Z,30.50
2022-08-04T16:58:01.152Z,30.40
2022-08-04T17:00:33.449Z,30.40
2022-08-04T17:03:07.886Z,30.40
2022-08-04T17:05:39.783Z,30.40
2022-08-04T17:08:29.257Z,30.30
2022-08-04T17:10:55.037Z,30.20
2022-08-04T17:14:03.065Z,30.10
2022-08-04T17:16:23.499Z,30.00
2022-08-04T17:18:53.174Z,30.00
2022-08-04T17:21:29.596Z,29.90
2022-08-04T17:24:16.038Z,29.80
2022-08-04T17:26:53.820Z,29.70
2022-08-04T17:29:42.262Z,29.60
2022-08-04T17:32:20.773Z,29.60
2022-08-04T17:35:00.457Z,29.60
2022-08-04T17:37:39.838Z,29.50
2022-08-04T17:40:22.885Z,29.50
2022-08-04T17:44:04.812Z,29.40
2022-08-04T17:46:30.215Z,27.90
2022-08-04T17:49:04.821Z,29.30
2022-08-04T17:52:04.387Z,29.30
2022-08-04T17:54:39.025Z,29.30
2022-08-04T17:57:21.642Z,29.30
2022-08-04T17:59:57.724Z,29.20
2022-08-04T18:02:32.196Z,31.90
2022-08-04T18:05:07.785Z,29.10
2022-08-04T18:08:34.535Z,29.10
2022-08-04T18:10:56.756Z,29.10
2022-08-04T18:13:25.950Z,29.10
2022-08-04T18:16:02.541Z,29.00
2022-08-04T18:18:29.917Z,29.00
2022-08-04T18:20:59.851Z,28.90
2022-08-04T18:23:32.111Z,28.90
2022-08-04T18:25:59.489Z,28.90
2022-08-04T18:28:29.252Z,28.90
2022-08-04T18:31:00.020Z,28.80
2022-08-04T18:33:39.968Z,28.80
2022-08-04T18:36:35.338Z,28.70
2022-08-04T18:38:58.677Z,28.70
2022-08-04T18:41:27.465Z,28.70
2022-08-04T18:43:57.310Z,28.60
2022-08-04T18:46:27.193Z,28.60
2022-08-04T18:48:54.331Z,28.50
2022-08-04T18:51:24.902Z,28.50
2022-08-04T18:53:58.926Z,28.40
2022-08-04T18:56:32.840Z,28.40
2022-08-04T18:59:10.533Z,28.30
2022-08-04T19:02:13.228Z,28.20
2022-08-04T19:04:32.797Z,28.10
2022-08-04T19:07:29.373Z,28.10
2022-08-04T19:12:36.858Z,28.00
2022-08-04T19:15:08.410Z,27.90
2022-08-04T19:17:57.094Z,27.80
2022-08-04T19:20:28.498Z,27.70
2022-08-04T19:24:11.474Z,27.60
2022-08-04T19:26:02.200Z,27.50
2022-08-04T19:28:34.805Z,27.30
2022-08-04T19:31:07.045Z,27.10
2022-08-04T19:33:58.493Z,27.00
2022-08-04T19:36:21.251Z,26.90
2022-08-04T19:39:11.376Z,26.80
2022-08-04T19:42:06.283Z,26.70
2022-08-04T19:44:25.362Z,26.70
2022-08-04T19:46:57.513Z,26.60
2022-08-04T19:50:02.598Z,26.60
2022-08-04T19:52:14.303Z,26.50
2022-08-04T19:55:00.132Z,26.40
2022-08-04T19:57:35.715Z,26.30
2022-08-04T20:00:04.772Z,26.20
2022-08-04T20:02:32.522Z,26.10
2022-08-04T20:05:02.190Z,26.10
2022-08-04T20:07:35.341Z,26.20
2022-08-04T20:10:04.511Z,26.00
2022-08-04T20:12:31.753Z,25.90
2022-08-04T20:14:58.361Z,25.80
2022-08-04T20:18:08.350Z,25.80
2022-08-04T20:20:13.441Z,25.70
2022-08-04T20:22:50.860Z,25.70
2022-08-04T20:25:36.533Z,25.70
2022-08-04T20:28:05.346Z,25.70
2022-08-04T20:30:33.433Z,25.70
2022-08-04T20:33:01.288Z,25.70
2022-08-04T20:35:29.405Z,25.70
2022-08-04T20:38:00.476Z,25.70
2022-08-04T20:40:29.835Z,25.70
2022-08-04T20:42:57.407Z,25.60
2022-08-04T20:45:55.664Z,25.60
2022-08-04T20:48:11.458Z,25.60
2022-08-04T20:50:38.243Z,25.60
2022-08-04T20:53:16.613Z,25.50
2022-08-04T20:55:55.351Z,25.50
2022-08-04T20:58:31.950Z,25.40
2022-08-04T21:00:58.671Z,25.40
2022-08-04T21:03:49.686Z,25.30
2022-08-04T21:06:11.874Z,25.20
2022-08-04T21:08:38.449Z,25.10
2022-08-04T21:11:06.879Z,25.10
2022-08-04T21:13:50.544Z,25.00
2022-08-04T21:16:53.747Z,25.00
2022-08-04T21:19:05.777Z,24.90
2022-08-04T21:21:40.754Z,24.80
2022-08-04T21:24:07.758Z,24.80
2022-08-04T21:26:35.509Z,24.70
2022-08-04T21:29:04.497Z,24.70
2022-08-04T21:31:32.512Z,24.70
2022-08-04T21:34:03.694Z,24.70
2022-08-04T21:36:30.343Z,24.70
2022-08-04T21:38:57.757Z,24.70
2022-08-04T21:44:11.150Z,24.70
2022-08-04T21:46:44.263Z,24.60
2022-08-04T21:49:11.250Z,24.60
2022-08-04T21:51:59.118Z,24.60
2022-08-04T21:54:25.550Z,24.50
2022-08-04T21:56:52.363Z,24.40
2022-08-04T21:59:23.900Z,24.30
2022-08-04T22:01:57.842Z,24.30
2022-08-04T22:04:27.191Z,24.20
2022-08-04T22:06:53.818Z,24.20
2022-08-04T22:09:21.582Z,24.10
2022-08-04T22:14:35.755Z,24.00
2022-08-04T22:17:04.039Z,24.00
2022-08-04T22:19:40.916Z,23.90
2022-08-04T22:22:24.485Z,24.00
2022-08-04T22:24:58.620Z,23.90
2022-08-04T22:28:00.767Z,23.90
2022-08-04T22:30:29.191Z,23.90
2022-08-04T22:33:00.318Z,23.90
2022-08-04T22:35:42.910Z,23.80
2022-08-04T22:38:28.032Z,23.80
2022-08-04T22:41:02.533Z,23.80
2022-08-04T22:43:32.826Z,23.80
2022-08-04T22:46:03.836Z,23.80
2022-08-04T22:48:34.004Z,23.70
2022-08-04T22:51:01.606Z,23.20
2022-08-04T22:53:29.517Z,23.70
2022-08-04T22:56:07.382Z,23.70
2022-08-04T22:58:50.991Z,23.70
2022-08-04T23:01:18.169Z,23.70
2022-08-04T23:03:55.432Z,23.70
2022-08-04T23:06:24.332Z,23.70
2022-08-04T23:08:51.499Z,23.70
2022-08-04T23:11:18.160Z,23.70
2022-08-04T23:13:45.346Z,23.70
2022-08-04T23:16:12.597Z,23.70
2022-08-04T23:18:41.792Z,23.70
2022-08-04T23:21:09.987Z,23.70
2022-08-04T23:23:37.303Z,23.60
2022-08-04T23:26:13.408Z,23.60
2022-08-04T23:28:40.439Z,23.60
2022-08-04T23:31:10.288Z,23.60
2022-08-04T23:33:50.691Z,23.60
2022-08-04T23:36:26.457Z,23.50
2022-08-04T23:39:04.070Z,23.50
2022-08-04T23:41:53.432Z,23.40
2022-08-04T23:44:25.784Z,23.30
2022-08-04T23:47:00.813Z,23.30
2022-08-04T23:49:43.709Z,23.20
2022-08-04T23:52:23.125Z,23.20
2022-08-04T23:54:56.493Z,23.20
2022-08-04T23:57:25.052Z,23.10
2022-08-04T23:59:54.933Z,23.10
